createdAt,value
2022-08-18T00:01:23.701Z,7.47
2022-08-18T00:05:16.702Z,7.43
2022-08-18T00:08:57.250Z,7.53
2022-08-18T00:12:57.118Z,7.40
2022-08-18T00:16:45.718Z,7.73
2022-08-18T00:20:31.778Z,8.52
2022-08-18T00:24:16.697Z,7.95
2022-08-18T00:28:02.764Z,8.23
2022-08-18T00:31:47.678Z,8.20
2022-08-18T00:35:45.714Z,9.00
2022-08-18T00:39:34.289Z,8.00
2022-08-18T00:43:55.716Z,7.95
2022-08-18T00:47:42.885Z,8.52
2022-08-18T00:51:47.743Z,8.03
2022-08-18T00:55:35.706Z,8.33
2022-08-18T00:59:30.721Z,9.32
2022-08-18T01:03:24.580Z,7.97
2022-08-18T01:07:33.801Z,8.65
2022-08-18T01:11:21.705Z,8.83
2022-08-18T01:15:28.731Z,8.83
2022-08-18T01:19:32.723Z,9.23
2022-08-18T01:23:26.864Z,9.43
2022-08-18T01:27:11.841Z,8.98
2022-08-18T01:31:05.705Z,9.80
2022-08-18T01:34:48.069Z,9.67
2022-08-18T01:38:39.755Z,9.63
2022-08-18T01:42:24.773Z,9.77
2022-08-18T01:46:17.746Z,9.77
2022-08-18T01:49:57.053Z,9.83
2022-08-18T01:53:49.794Z,10.53
2022-08-18T01:57:34.733Z,10.07
2022-08-18T02:01:22.656Z,9.75
2022-08-18T02:05:24.768Z,11.35
2022-08-18T02:09:23.776Z,11.60
2022-08-18T02:13:08.763Z,11.70
2022-08-18T02:17:01.925Z,12.55
2022-08-18T02:20:47.750Z,12.30
2022-08-18T02:24:39.761Z,13.57
2022-08-18T02:28:18.012Z,12.33
2022-08-18T02:32:09.790Z,12.13
2022-08-18T02:36:00.801Z,13.32
2022-08-18T02:39:52.816Z,12.23
2022-08-18T02:43:33.830Z,13.65
2022-08-18T02:47:33.926Z,12.50
2022-08-18T02:51:20.798Z,12.27
2022-08-18T02:55:12.001Z,12.45
2022-08-18T02:59:19.780Z,13.77
2022-08-18T03:03:11.793Z,12.43
2022-08-18T03:06:56.766Z,13.97
2022-08-18T03:10:48.859Z,13.63
2022-08-18T03:14:27.341Z,12.52
2022-08-18T03:18:18.846Z,12.98
2022-08-18T03:22:03.038Z,14.65
2022-08-18T03:25:59.785Z,13.83
2022-08-18T03:29:44.814Z,14.30
2022-08-18T03:33:36.796Z,14.10
2022-08-18T03:37:24.830Z,13.80
2022-08-18T03:41:17.178Z,12.80
2022-08-18T03:45:17.753Z,14.10
2022-08-18T03:49:11.837Z,14.90
2022-08-18T03:52:56.830Z,14.10
2022-08-18T03:56:44.915Z,14.85
2022-08-18T04:00:29.786Z,14.43
2022-08-18T04:04:27.822Z,13.90
2022-08-18T04:08:07.019Z,14.40
2022-08-18T04:11:59.854Z,15.38
2022-08-18T04:15:44.834Z,14.80
2022-08-18T04:19:37.836Z,14.50
2022-08-18T04:23:23.881Z,15.87
2022-08-18T04:27:10.963Z,16.33
2022-08-18T04:30:55.821Z,15.95
2022-08-18T04:34:47.844Z,16.42
2022-08-18T04:38:32.834Z,16.02
2022-08-18T04:42:24.839Z,15.70
2022-08-18T04:46:03.283Z,15.55
2022-08-18T04:49:54.840Z,15.98
2022-08-18T04:53:51.856Z,15.15
2022-08-18T04:57:44.840Z,15.57
2022-08-18T05:01:35.927Z,15.83
2022-08-18T05:05:27.861Z,15.48
2022-08-18T05:09:16.632Z,15.32
2022-08-18T05:13:14.879Z,15.35
2022-08-18T05:16:59.893Z,16.20
2022-08-18T05:20:44.935Z,17.23
2022-08-18T05:24:37.167Z,16.35
2022-08-18T05:28:29.869Z,17.98
2022-08-18T05:32:08.747Z,17.50
2022-08-18T05:36:09.004Z,17.05
2022-08-18T05:40:11.628Z,16.63
2022-08-18T05:43:57.973Z,18.10
2022-08-18T05:47:42.889Z,16.92
2022-08-18T05:51:47.867Z,17.77
2022-08-18T05:55:55.873Z,17.27
2022-08-18T05:59:45.015Z,16.63
2022-08-18T06:03:55.903Z,17.27
2022-08-18T06:08:02.998Z,16.67
2022-08-18T06:11:41.245Z,16.30
2022-08-18T06:15:39.699Z,16.02
2022-08-18T06:19:40.965Z,15.20
2022-08-18T06:23:37.945Z,14.52
2022-08-18T06:27:40.921Z,14.95
2022-08-18T06:31:48.929Z,15.07
2022-08-18T06:35:54.902Z,14.70
2022-08-18T06:39:50.041Z,14.33
2022-08-18T06:43:38.898Z,15.50
2022-08-18T06:47:41.045Z,14.07
2022-08-18T06:51:27.957Z,14.27
2022-08-18T06:55:23.982Z,13.23
2022-08-18T06:59:40.912Z,13.00
2022-08-18T07:03:49.939Z,12.20
2022-08-18T07:07:54.102Z,13.48
2022-08-18T07:11:49.926Z,12.55
2022-08-18T07:15:38.924Z,12.33
2022-08-18T07:19:35.958Z,12.50
2022-08-18T07:23:13.997Z,13.13
2022-08-18T07:27:14.941Z,12.15
2022-08-18T07:31:15.900Z,11.95
2022-08-18T07:35:19.978Z,11.00
2022-08-18T07:39:20.946Z,11.38
2022-08-18T07:43:18.945Z,11.88
2022-08-18T07:47:24.955Z,11.18
2022-08-18T07:51:37.254Z,10.80
2022-08-18T07:55:41.920Z,11.18
2022-08-18T07:59:42.931Z,11.38
2022-08-18T08:04:07.986Z,10.02
2022-08-18T08:08:08.030Z,10.83
2022-08-18T08:12:11.962Z,11.27
2022-08-18T08:16:28.557Z,9.68
2022-08-18T08:20:22.961Z,10.40
2022-08-18T08:24:29.968Z,12.00
2022-08-18T08:28:44.970Z,10.02
2022-08-18T08:33:04.329Z,9.93
2022-08-18T08:37:00.973Z,9.57
2022-08-18T08:41:00.987Z,8.47
2022-08-18T08:44:59.793Z,9.60
2022-08-18T08:48:54.130Z,9.80
2022-08-18T08:52:58.041Z,10.87
2022-08-18T08:56:44.201Z,10.87
2022-08-18T09:00:37.029Z,10.32
2022-08-18T09:05:07.339Z,10.35
2022-08-18T09:09:04.026Z,9.80
2022-08-18T09:12:59.994Z,9.27
2022-08-18T09:17:33.965Z,9.07
2022-08-18T09:21:18.562Z,11.00
2022-08-18T09:25:11.003Z,10.73
2022-08-18T09:29:06.021Z,9.35
2022-08-18T09:33:18.735Z,10.52
2022-08-18T09:37:24.441Z,9.95
2022-08-18T09:41:39.028Z,9.33
2022-08-18T09:45:38.036Z,9.25
2022-08-18T09:50:37.346Z,9.07
2022-08-18T09:54:02.025Z,9.73
2022-08-18T09:58:22.944Z,9.30
2022-08-18T10:02:06.275Z,8.98
2022-08-18T10:06:27.446Z,9.73
2022-08-18T10:11:01.027Z,8.03
2022-08-18T10:14:44.062Z,7.85
2022-08-18T10:18:53.094Z,8.07
2022-08-18T10:22:53.163Z,8.47
2022-08-18T10:26:38.401Z,7.75
2022-08-18T10:30:36.244Z,7.82
2022-08-18T10:34:24.652Z,8.63
2022-08-18T10:38:31.032Z,9.15
2022-08-18T10:42:39.056Z,8.73
2022-08-18T10:46:39.497Z,9.05
2022-08-18T10:50:36.030Z,8.27
2022-08-18T10:55:00.116Z,8.90
2022-08-18T10:59:16.434Z,8.45
2022-08-18T11:03:50.601Z,7.63
2022-08-18T11:07:40.073Z,8.60
2022-08-18T11:11:38.652Z,8.85
2022-08-18T11:16:13.402Z,8.60
2022-08-18T11:19:52.570Z,7.72
2022-08-18T11:23:44.051Z,8.00
2022-08-18T11:27:35.081Z,8.88
2022-08-18T11:31:20.140Z,9.43
2022-08-18T11:43:50.828Z,9.60
2022-08-18T11:47:36.163Z,9.07
2022-08-18T11:51:28.123Z,8.05
2022-08-18T11:55:33.839Z,7.77
2022-08-18T11:59:53.485Z,8.07
2022-08-18T12:03:57.106Z,8.40
2022-08-18T12:07:57.713Z,7.82
2022-08-18T12:12:02.141Z,10.07
2022-08-18T12:19:55.105Z,9.27
2022-08-18T12:27:55.171Z,8.30
2022-08-18T12:31:42.807Z,8.13
2022-08-18T12:35:41.823Z,7.70
2022-08-18T12:39:21.070Z,7.75
2022-08-18T12:43:14.186Z,8.15
2022-08-18T12:46:59.820Z,8.93
2022-08-18T12:50:54.477Z,8.47
2022-08-18T12:54:55.389Z,8.95
2022-08-18T12:58:47.153Z,9.00
2022-08-18T13:02:32.174Z,8.47
2022-08-18T13:06:25.152Z,9.60
2022-08-18T13:10:35.763Z,9.48
2022-08-18T13:14:18.214Z,9.10
2022-08-18T13:18:03.156Z,8.23
2022-08-18T13:21:57.024Z,8.55
2022-08-18T13:25:39.404Z,9.82
2022-08-18T13:29:32.167Z,8.47
2022-08-18T13:33:34.977Z,9.00
2022-08-18T13:37:30.185Z,8.32
2022-08-18T13:41:23.464Z,8.63
2022-08-18T13:45:25.090Z,8.63
2022-08-18T13:49:04.489Z,7.60
2022-08-18T13:52:57.256Z,9.27
2022-08-18T13:56:51.590Z,8.40
2022-08-18T14:00:38.235Z,9.98
2022-08-18T14:04:30.181Z,8.63
2022-08-18T14:08:22.186Z,7.63
2022-08-18T14:12:23.311Z,8.38
2022-08-18T14:16:11.184Z,8.48
2022-08-18T14:20:31.214Z,7.90
2022-08-18T14:24:36.812Z,8.32
2022-08-18T14:28:28.197Z,8.73
2022-08-18T14:32:18.184Z,8.70
2022-08-18T14:36:29.673Z,9.18
2022-08-18T14:40:23.272Z,9.23
2022-08-18T14:44:13.287Z,8.40
2022-08-18T14:48:12.181Z,9.23
2022-08-18T14:52:13.953Z,7.65
2022-08-18T14:56:06.182Z,7.00
2022-08-18T14:59:45.268Z,7.33
2022-08-18T15:03:38.176Z,7.80
2022-08-18T15:07:24.234Z,7.30
2022-08-18T15:11:24.259Z,7.73
2022-08-18T15:15:42.058Z,6.97
2022-08-18T15:19:58.894Z,7.07
2022-08-18T15:24:04.186Z,7.63
2022-08-18T15:27:56.237Z,7.97
2022-08-18T15:31:59.793Z,8.13
2022-08-18T15:35:57.206Z,8.18
2022-08-18T15:39:35.337Z,9.10
2022-08-18T15:43:29.126Z,7.63
2022-08-18T15:47:20.930Z,7.17
2022-08-18T15:51:13.265Z,7.53
2022-08-18T15:55:02.636Z,6.47
2022-08-18T15:58:54.236Z,7.63
2022-08-18T16:02:39.293Z,6.73
2022-08-18T16:06:33.398Z,6.50
2022-08-18T16:10:14.297Z,7.00
2022-08-18T16:14:06.238Z,7.17
2022-08-18T16:17:51.532Z,6.13
2022-08-18T16:21:46.274Z,7.10
2022-08-18T16:25:31.311Z,7.20
2022-08-18T16:29:23.300Z,6.40
2022-08-18T16:33:05.491Z,7.10
2022-08-18T16:36:57.265Z,6.35
2022-08-18T16:40:42.311Z,5.93
2022-08-18T16:44:36.290Z,6.78
2022-08-18T16:48:16.953Z,6.53
2022-08-18T16:52:09.282Z,6.47
2022-08-18T16:55:58.291Z,6.97
2022-08-18T17:00:08.283Z,5.90
2022-08-18T17:04:14.700Z,5.97
2022-08-18T17:08:06.273Z,5.53
2022-08-18T17:11:52.362Z,6.43
2022-08-18T17:15:37.265Z,5.63
2022-08-18T17:19:29.286Z,5.75
2022-08-18T17:23:07.635Z,6.67
2022-08-18T17:27:26.970Z,6.23
2022-08-18T17:31:13.294Z,6.20
2022-08-18T17:35:10.398Z,5.95
2022-08-18T17:39:05.305Z,6.03
2022-08-18T17:42:57.348Z,6.03
2022-08-18T17:46:40.235Z,5.87
2022-08-18T17:51:00.406Z,6.10
2022-08-18T17:54:50.353Z,6.15
2022-08-18T17:58:38.019Z,6.35
2022-08-18T18:02:32.338Z,6.03
2022-08-18T18:06:46.182Z,6.20
2022-08-18T18:11:04.734Z,6.35
2022-08-18T18:14:44.389Z,7.70
2022-08-18T18:18:49.336Z,6.68
2022-08-18T18:22:38.339Z,6.83
2022-08-18T18:26:49.344Z,6.40
2022-08-18T18:30:48.330Z,7.10
2022-08-18T18:34:46.355Z,7.72
2022-08-18T18:38:52.350Z,7.40
2022-08-18T18:42:51.448Z,7.13
2022-08-18T18:46:51.370Z,7.20
2022-08-18T18:50:36.359Z,7.80
2022-08-18T18:55:02.425Z,7.32
2022-08-18T18:59:35.448Z,8.13
2022-08-18T19:03:34.444Z,8.37
2022-08-18T19:07:31.362Z,6.87
2022-08-18T19:11:32.372Z,6.60
2022-08-18T19:15:16.704Z,7.65
2022-08-18T19:19:36.213Z,7.32
2022-08-18T19:23:46.378Z,8.17
2022-08-18T19:27:49.699Z,8.10
2022-08-18T19:31:36.337Z,7.50
2022-08-18T19:35:38.370Z,7.90
2022-08-18T19:39:29.508Z,7.78
2022-08-18T19:43:40.362Z,7.57
2022-08-18T19:47:47.757Z,6.73
2022-08-18T19:51:48.390Z,7.53
2022-08-18T19:56:09.379Z,7.93
2022-08-18T20:00:46.461Z,7.78
2022-08-18T20:04:53.397Z,7.00
2022-08-18T20:09:12.874Z,7.30
2022-08-18T20:13:32.490Z,7.13
2022-08-18T20:17:28.570Z,8.35
2022-08-18T20:21:23.420Z,8.10
2022-08-18T20:25:12.428Z,7.63
2022-08-18T20:29:11.399Z,7.87
2022-08-18T20:33:27.421Z,7.22
2022-08-18T20:37:16.413Z,8.15
2022-08-18T20:41:39.191Z,8.20
2022-08-18T20:45:45.934Z,7.63
2022-08-18T20:50:09.408Z,7.57
2022-08-18T20:54:13.583Z,8.10
2022-08-18T20:58:38.428Z,8.10
2022-08-18T21:02:43.131Z,8.00
2022-08-18T21:06:44.457Z,8.17
2022-08-18T21:10:36.440Z,7.97
2022-08-18T21:14:42.428Z,8.93
2022-08-18T21:18:34.460Z,7.70
2022-08-18T21:22:26.430Z,8.00
2022-08-18T21:26:21.451Z,8.40
2022-08-18T21:30:10.513Z,7.83
2022-08-18T21:33:57.451Z,8.38
2022-08-18T21:37:54.464Z,7.97
2022-08-18T21:41:40.582Z,8.40
2022-08-18T21:45:35.441Z,8.20
2022-08-18T21:49:24.939Z,8.00
2022-08-18T21:53:25.438Z,7.90
2022-08-18T21:57:29.477Z,8.20
2022-08-18T22:01:40.442Z,8.85
2022-08-18T22:05:58.331Z,8.47
2022-08-18T22:10:47.460Z,8.00
2022-08-18T22:14:55.007Z,8.00
2022-08-18T22:18:45.530Z,8.10
2022-08-18T22:22:58.485Z,8.05
2022-08-18T22:26:47.477Z,8.60
2022-08-18T22:30:46.497Z,7.93
2022-08-18T22:34:40.485Z,8.48
2022-08-18T22:38:25.496Z,9.18
2022-08-18T22:42:17.484Z,8.68
2022-08-18T22:45:55.606Z,8.50
2022-08-18T22:49:47.491Z,8.57
2022-08-18T22:53:32.479Z,8.10
2022-08-18T22:57:31.509Z,8.77
2022-08-18T23:01:25.506Z,9.02
2022-08-18T23:05:10.488Z,9.27
2022-08-18T23:09:03.543Z,8.87
2022-08-18T23:12:48.505Z,8.45
2022-08-18T23:16:40.497Z,8.07
2022-08-18T23:20:22.834Z,8.32
2022-08-18T23:24:20.504Z,8.90
2022-08-18T23:28:06.509Z,8.60
2022-08-18T23:32:05.525Z,8.00
2022-08-18T23:36:04.509Z,8.88
2022-08-18T23:39:56.533Z,8.27
2022-08-18T23:43:42.520Z,8.73
2022-08-18T23:47:34.510Z,8.30
2022-08-18T23:51:13.089Z,8.30
2022-08-18T23:55:04.556Z,8.65
2022-08-18T23:58:57.073Z,8.80
